createdAt,value
2017-11-08T00:01:09.551Z,53.93
2017-11-08T00:03:36.246Z,54.20
2017-11-08T00:06:02.744Z,55.67
2017-11-08T00:08:28.706Z,47.50
2017-11-08T00:10:55.393Z,49.57
2017-11-08T00:13:21.372Z,54.30
2017-11-08T00:15:47.328Z,51.87
2017-11-08T00:18:14.011Z,53.23
2017-11-08T00:20:40.015Z,50.13
2017-11-08T00:23:07.594Z,47.47
2017-11-08T00:25:34.322Z,51.23
2017-11-08T00:28:00.264Z,48.27
2017-11-08T00:30:26.259Z,46.57
2017-11-08T00:32:52.209Z,55.10
2017-11-08T00:35:18.157Z,50.03
2017-11-08T00:37:44.135Z,50.73
2017-11-08T00:40:10.132Z,53.50
2017-11-08T00:42:36.135Z,55.90
2017-11-08T00:45:02.125Z,43.73
2017-11-08T00:47:30.800Z,45.47
2017-11-08T00:49:56.741Z,49.73
2017-11-08T00:52:22.743Z,54.43
2017-11-08T00:54:48.741Z,47.30
2017-11-08T00:57:21.811Z,47.77
2017-11-08T00:59:47.794Z,50.07
2017-11-08T01:02:14.532Z,52.50
2017-11-08T01:04:40.477Z,43.33
2017-11-08T01:07:07.162Z,47.90
2017-11-08T01:09:33.148Z,49.03
2017-11-08T01:11:59.106Z,51.87
2017-11-08T01:14:25.821Z,51.67
2017-11-08T01:16:51.776Z,45.50
2017-11-08T01:19:17.732Z,50.10
2017-11-08T01:21:44.481Z,48.40
2017-11-08T01:24:11.210Z,47.00
2017-11-08T01:26:37.165Z,51.40
2017-11-08T01:29:03.865Z,50.23
2017-11-08T01:31:29.841Z,48.30
2017-11-08T01:33:55.784Z,45.90
2017-11-08T01:36:22.508Z,49.63
2017-11-08T01:38:48.480Z,48.47
2017-11-08T01:41:21.244Z,48.00
2017-11-08T01:43:47.197Z,49.50
2017-11-08T01:46:16.080Z,51.37
2017-11-08T01:48:42.765Z,43.30
2017-11-08T01:51:13.376Z,53.70
2017-11-08T01:53:39.372Z,45.87
2017-11-08T01:56:05.308Z,51.47
2017-11-08T01:58:31.234Z,47.13
2017-11-08T02:00:57.216Z,46.50
2017-11-08T02:03:23.161Z,42.27
2017-11-08T02:05:49.109Z,59.23
2017-11-08T02:08:15.132Z,51.97
2017-11-08T02:10:41.086Z,51.33
2017-11-08T02:13:07.057Z,52.23
2017-11-08T02:15:33.030Z,51.53
2017-11-08T02:17:59.029Z,49.90
2017-11-08T02:20:24.992Z,49.23
2017-11-08T02:22:50.933Z,45.10
2017-11-08T02:25:16.909Z,52.97
2017-11-08T02:27:43.622Z,43.60
2017-11-08T02:30:09.591Z,45.43
2017-11-08T02:32:36.323Z,48.07
2017-11-08T02:35:02.315Z,51.37
2017-11-08T02:37:28.251Z,50.20
2017-11-08T02:39:54.198Z,50.93
2017-11-08T02:42:20.173Z,45.23
2017-11-08T02:44:46.159Z,48.60
2017-11-08T02:47:12.105Z,55.80
2017-11-08T02:49:38.081Z,53.10
2017-11-08T02:52:04.070Z,53.10
2017-11-08T02:54:30.017Z,50.00
2017-11-08T02:56:55.965Z,43.97
2017-11-08T02:59:21.962Z,44.37
2017-11-08T03:01:47.925Z,52.67
2017-11-08T03:04:13.887Z,50.40
2017-11-08T03:06:39.894Z,44.97
2017-11-08T03:09:05.884Z,46.17
2017-11-08T03:11:32.597Z,50.57
2017-11-08T03:13:58.542Z,54.77
2017-11-08T03:16:24.498Z,49.87
2017-11-08T03:18:50.482Z,52.70
2017-11-08T03:21:16.458Z,46.20
2017-11-08T03:23:42.435Z,49.13
2017-11-08T03:26:08.395Z,58.43
2017-11-08T03:28:34.386Z,46.47
2017-11-08T03:31:01.088Z,46.23
2017-11-08T03:33:27.116Z,51.73
2017-11-08T03:35:53.095Z,46.03
2017-11-08T03:38:19.058Z,48.43
2017-11-08T03:40:45.758Z,49.10
2017-11-08T03:43:11.729Z,50.07
2017-11-08T03:45:38.413Z,48.63
2017-11-08T03:48:04.389Z,46.03
2017-11-08T03:50:30.342Z,46.17
2017-11-08T03:52:56.325Z,42.83
2017-11-08T03:55:22.273Z,43.63
2017-11-08T03:57:48.265Z,47.13
2017-11-08T04:00:15.006Z,47.40
2017-11-08T04:02:41.050Z,42.97
2017-11-08T04:05:06.997Z,49.33
2017-11-08T04:07:33.690Z,43.23
2017-11-08T04:09:59.665Z,41.53
2017-11-08T04:12:25.613Z,45.17
2017-11-08T04:14:51.602Z,44.30
2017-11-08T04:17:17.596Z,43.97
2017-11-08T04:19:44.305Z,43.97
2017-11-08T04:22:10.241Z,45.23
2017-11-08T04:24:36.222Z,43.00
2017-11-08T04:27:02.952Z,46.17
2017-11-08T04:29:29.645Z,41.30
2017-11-08T04:31:55.622Z,47.93
2017-11-08T04:34:21.574Z,45.23
2017-11-08T04:36:47.565Z,44.43
2017-11-08T04:39:13.561Z,45.33
2017-11-08T04:41:40.281Z,42.40
2017-11-08T04:44:06.228Z,42.93
2017-11-08T04:46:32.202Z,48.23
2017-11-08T04:48:58.148Z,43.63
2017-11-08T04:51:24.177Z,43.17
2017-11-08T04:53:50.869Z,40.53
2017-11-08T04:56:16.842Z,41.90
2017-11-08T04:58:43.576Z,48.07
2017-11-08T05:01:09.533Z,43.20
2017-11-08T05:03:36.267Z,44.20
2017-11-08T05:06:02.220Z,59.40
2017-11-08T05:08:28.937Z,53.67
2017-11-08T05:10:54.917Z,49.60
2017-11-08T05:13:21.612Z,60.73
2017-11-08T05:15:47.616Z,52.07
2017-11-08T05:18:14.372Z,56.03
2017-11-08T05:20:40.345Z,56.20
2017-11-08T05:23:06.296Z,60.93
2017-11-08T05:25:32.297Z,50.90
2017-11-08T05:27:58.242Z,51.80
2017-11-08T05:30:24.195Z,58.73
2017-11-08T05:32:50.186Z,50.47
2017-11-08T05:35:16.171Z,56.03
2017-11-08T05:37:42.159Z,57.80
2017-11-08T05:40:08.126Z,61.10
2017-11-08T05:42:34.118Z,57.47
2017-11-08T05:45:00.812Z,57.03
2017-11-08T05:47:26.765Z,62.87
2017-11-08T05:49:52.746Z,59.10
2017-11-08T05:52:19.441Z,61.20
2017-11-08T05:54:45.437Z,71.23
2017-11-08T05:57:11.486Z,64.37
2017-11-08T05:59:37.502Z,68.93
2017-11-08T06:02:04.246Z,56.53
2017-11-08T06:04:30.202Z,59.13
2017-11-08T06:06:56.155Z,59.87
2017-11-08T06:09:22.157Z,59.17
2017-11-08T06:11:48.845Z,62.70
2017-11-08T06:14:14.836Z,50.10
2017-11-08T06:16:40.821Z,55.67
2017-11-08T06:19:06.809Z,58.07
2017-11-08T06:21:32.748Z,51.63
2017-11-08T06:23:59.448Z,50.80
2017-11-08T06:26:25.541Z,54.77
2017-11-08T06:28:52.230Z,53.43
2017-11-08T06:31:18.217Z,50.73
2017-11-08T06:33:44.173Z,50.23
2017-11-08T06:36:10.898Z,52.50
2017-11-08T06:38:37.617Z,53.73
2017-11-08T06:41:03.569Z,54.90
2017-11-08T06:43:29.554Z,53.90
2017-11-08T06:45:56.290Z,57.50
2017-11-08T06:48:22.235Z,59.90
2017-11-08T06:50:48.945Z,64.47
2017-11-08T06:53:15.747Z,59.90
2017-11-08T06:55:42.429Z,61.30
2017-11-08T06:58:08.397Z,58.53
2017-11-08T07:00:34.341Z,59.40
2017-11-08T07:03:00.372Z,54.77
2017-11-08T07:05:26.355Z,61.77
2017-11-08T07:07:52.306Z,56.77
2017-11-08T07:10:18.304Z,52.93
2017-11-08T07:12:45.017Z,53.40
2017-11-08T07:15:11.000Z,57.93
2017-11-08T07:17:37.717Z,61.00
2017-11-08T07:20:03.670Z,52.53
2017-11-08T07:22:29.641Z,57.07
2017-11-08T07:24:55.613Z,51.83
2017-11-08T07:27:21.606Z,54.70
2017-11-08T07:29:47.546Z,51.07
2017-11-08T07:32:13.554Z,54.57
2017-11-08T07:34:39.497Z,50.47
2017-11-08T07:37:06.188Z,59.20
2017-11-08T07:39:32.161Z,49.50
2017-11-08T07:41:59.594Z,45.97
2017-11-08T07:44:25.570Z,58.43
2017-11-08T07:46:51.541Z,47.03
2017-11-08T07:49:18.264Z,57.00
2017-11-08T07:51:44.267Z,53.10
2017-11-08T07:54:11.202Z,49.43
2017-11-08T07:56:37.157Z,48.17
2017-11-08T07:59:03.133Z,52.03
2017-11-08T08:01:29.139Z,44.10
2017-11-08T08:03:55.141Z,47.93
2017-11-08T08:06:21.103Z,52.10
2017-11-08T08:08:47.135Z,50.73
2017-11-08T08:11:19.197Z,46.93
2017-11-08T08:13:45.173Z,53.63
2017-11-08T08:18:42.778Z,49.80
2017-11-08T08:21:14.810Z,49.17
2017-11-08T08:23:40.794Z,46.63
2017-11-08T08:26:06.743Z,45.77
2017-11-08T08:28:39.685Z,44.03
2017-11-08T08:31:05.639Z,50.63
2017-11-08T08:33:31.598Z,55.87
2017-11-08T08:35:57.582Z,54.33
2017-11-08T08:38:23.529Z,44.07
2017-11-08T08:40:49.517Z,48.70
2017-11-08T08:43:15.469Z,42.63
2017-11-08T08:45:42.210Z,44.53
2017-11-08T08:48:08.169Z,46.47
2017-11-08T08:50:34.874Z,48.37
2017-11-08T08:53:00.853Z,50.07
2017-11-08T08:55:27.542Z,46.03
2017-11-08T08:57:53.523Z,46.87
2017-11-08T09:00:20.287Z,48.17
2017-11-08T09:02:47.919Z,39.23
2017-11-08T09:05:13.886Z,42.80
2017-11-08T09:07:39.874Z,42.83
2017-11-08T09:10:05.825Z,43.13
2017-11-08T09:12:31.801Z,39.70
2017-11-08T09:14:57.769Z,39.70
2017-11-08T09:17:23.709Z,37.67
2017-11-08T09:19:49.686Z,39.33
2017-11-08T09:22:15.699Z,39.70
2017-11-08T09:24:41.693Z,37.90
2017-11-08T09:27:10.409Z,38.53
2017-11-08T09:29:39.204Z,37.93
2017-11-08T09:32:08.846Z,37.67
2017-11-08T09:34:34.805Z,34.20
2017-11-08T09:37:00.788Z,39.13
2017-11-08T09:39:27.465Z,46.10
2017-11-08T09:41:55.284Z,46.60
2017-11-08T09:44:21.244Z,43.77
2017-11-08T09:46:47.234Z,36.80
2017-11-08T09:49:13.222Z,44.27
2017-11-08T09:51:39.937Z,39.13
2017-11-08T09:54:07.721Z,38.70
2017-11-08T09:56:33.717Z,35.90
2017-11-08T09:59:03.530Z,34.57
2017-11-08T10:01:35.729Z,35.60
2017-11-08T10:04:01.773Z,36.40
2017-11-08T10:06:27.722Z,39.57
2017-11-08T10:08:53.717Z,41.10
2017-11-08T10:11:19.686Z,36.53
2017-11-08T10:13:45.714Z,41.47
2017-11-08T10:16:11.697Z,45.43
2017-11-08T10:18:37.653Z,44.83
2017-11-08T10:21:04.457Z,43.43
2017-11-08T10:23:31.100Z,42.17
2017-11-08T10:25:57.146Z,47.47
2017-11-08T10:28:23.094Z,43.23
2017-11-08T10:30:49.058Z,44.63
2017-11-08T10:33:15.061Z,43.53
2017-11-08T10:35:41.062Z,39.07
2017-11-08T10:38:07.005Z,48.03
2017-11-08T10:40:32.970Z,42.03
2017-11-08T10:42:58.920Z,45.83
2017-11-08T10:45:24.894Z,40.77
2017-11-08T10:47:50.904Z,49.40
2017-11-08T10:50:16.898Z,49.67
2017-11-08T10:52:44.794Z,44.60
2017-11-08T10:55:11.521Z,40.70
2017-11-08T10:57:40.374Z,45.33
2017-11-08T11:00:08.278Z,44.00
2017-11-08T11:02:34.218Z,43.73
2017-11-08T11:05:00.205Z,45.03
2017-11-08T11:07:26.932Z,42.00
2017-11-08T11:09:52.878Z,40.70
2017-11-08T11:12:18.892Z,42.20
2017-11-08T11:14:44.867Z,40.90
2017-11-08T11:17:11.546Z,35.67
2017-11-08T11:19:37.537Z,45.30
2017-11-08T11:22:03.488Z,43.60
2017-11-08T11:27:21.406Z,47.23
2017-11-08T11:29:47.390Z,45.70
2017-11-08T11:32:16.378Z,45.10
2017-11-08T11:34:42.322Z,42.33
2017-11-08T11:37:08.302Z,45.90
2017-11-08T11:39:34.996Z,46.33
2017-11-08T11:42:00.987Z,50.27
2017-11-08T11:44:27.665Z,49.97
2017-11-08T11:46:53.633Z,46.57
2017-11-08T11:49:19.577Z,43.63
2017-11-08T11:51:45.590Z,48.37
2017-11-08T11:54:11.536Z,48.60
2017-11-08T11:56:37.512Z,49.97
2017-11-08T11:59:04.206Z,52.17
2017-11-08T12:01:30.150Z,47.10
2017-11-08T12:03:56.134Z,51.97
2017-11-08T12:06:22.086Z,52.17
2017-11-08T12:08:48.782Z,49.77
2017-11-08T12:11:14.771Z,50.80
2017-11-08T12:13:41.458Z,53.30
2017-11-08T12:16:08.402Z,50.50
2017-11-08T12:18:34.350Z,54.20
2017-11-08T12:21:00.291Z,55.80
2017-11-08T12:23:26.266Z,59.50
2017-11-08T12:25:52.207Z,59.77
2017-11-08T12:28:18.198Z,51.40
2017-11-08T12:30:44.153Z,56.53
2017-11-08T12:33:10.089Z,56.40
2017-11-08T12:35:36.079Z,58.27
2017-11-08T12:38:02.763Z,55.20
2017-11-08T12:40:28.739Z,57.23
2017-11-08T12:43:00.459Z,60.37
2017-11-08T12:45:26.443Z,59.70
2017-11-08T12:47:52.427Z,60.23
2017-11-08T12:50:18.381Z,52.40
2017-11-08T12:52:44.378Z,73.10
2017-11-08T12:55:11.067Z,55.53
2017-11-08T12:57:37.050Z,56.33
2017-11-08T13:00:03.771Z,57.43
2017-11-08T13:02:29.758Z,55.87
2017-11-08T13:04:56.486Z,51.47
2017-11-08T13:07:22.482Z,52.27
2017-11-08T13:09:48.426Z,57.23
2017-11-08T13:12:14.380Z,54.63
2017-11-08T13:14:40.387Z,57.97
2017-11-08T13:17:06.368Z,59.17
2017-11-08T13:19:32.322Z,61.20
2017-11-08T13:21:59.048Z,55.17
2017-11-08T13:24:25.038Z,55.80
2017-11-08T13:26:51.003Z,57.53
2017-11-08T13:29:16.994Z,60.23
2017-11-08T13:31:43.683Z,62.93
2017-11-08T13:34:09.641Z,54.77
2017-11-08T13:36:35.615Z,62.90
2017-11-08T13:39:02.306Z,62.97
2017-11-08T13:41:28.287Z,56.13
2017-11-08T13:43:54.269Z,60.80
2017-11-08T13:46:20.218Z,60.30
2017-11-08T13:48:46.210Z,58.87
2017-11-08T13:51:12.902Z,61.83
2017-11-08T13:53:38.862Z,57.20
2017-11-08T13:56:04.846Z,58.80
2017-11-08T13:58:30.811Z,59.83
2017-11-08T14:00:56.794Z,59.20
2017-11-08T14:03:24.794Z,68.43
2017-11-08T14:05:51.494Z,58.77
2017-11-08T14:08:17.506Z,61.50
2017-11-08T14:10:43.450Z,62.20
2017-11-08T14:13:09.406Z,61.37
2017-11-08T14:15:35.382Z,59.27
2017-11-08T14:18:02.118Z,59.70
2017-11-08T14:20:28.070Z,62.90
2017-11-08T14:22:54.789Z,54.60
2017-11-08T14:25:20.771Z,65.63
2017-11-08T14:27:47.482Z,62.80
2017-11-08T14:30:15.334Z,61.37
2017-11-08T14:32:41.342Z,62.83
2017-11-08T14:35:07.306Z,62.30
2017-11-08T14:37:33.279Z,58.40
2017-11-08T14:39:59.254Z,68.07
2017-11-08T14:42:28.111Z,62.03
2017-11-08T14:44:54.111Z,67.80
2017-11-08T14:47:20.059Z,67.23
2017-11-08T14:49:46.034Z,71.50
2017-11-08T14:52:12.037Z,59.17
2017-11-08T14:54:38.994Z,61.60
2017-11-08T14:57:04.956Z,64.67
2017-11-08T14:59:30.953Z,60.67
2017-11-08T15:01:56.968Z,71.23
2017-11-08T15:04:22.923Z,64.53
2017-11-08T15:06:48.895Z,71.07
2017-11-08T15:09:14.956Z,64.43
2017-11-08T15:11:44.583Z,73.10
2017-11-08T15:14:16.273Z,69.80
2017-11-08T15:16:42.259Z,68.80
2017-11-08T15:19:09.697Z,65.17
2017-11-08T15:21:35.703Z,73.00
2017-11-08T15:24:05.351Z,71.10
2017-11-08T15:26:31.315Z,72.07
2017-11-08T15:28:58.138Z,76.57
2017-11-08T15:31:25.965Z,66.43
2017-11-08T15:33:51.974Z,68.10
2017-11-08T15:36:18.011Z,68.00
2017-11-08T15:38:44.630Z,68.40
2017-11-08T15:41:10.683Z,68.10
2017-11-08T15:43:36.702Z,74.27
2017-11-08T15:46:02.646Z,75.43
2017-11-08T15:48:28.606Z,68.63
2017-11-08T15:50:54.604Z,64.47
2017-11-08T15:53:21.311Z,78.93
2017-11-08T15:55:47.269Z,71.33
2017-11-08T15:58:13.997Z,77.53
2017-11-08T16:00:40.010Z,79.13
2017-11-08T16:03:07.770Z,72.80
2017-11-08T16:05:33.754Z,74.60
2017-11-08T16:07:59.705Z,73.90
2017-11-08T16:10:25.695Z,79.73
2017-11-08T16:12:55.607Z,77.37
2017-11-08T16:15:21.582Z,84.53
2017-11-08T16:17:51.338Z,78.10
2017-11-08T16:20:18.053Z,80.23
2017-11-08T16:22:44.075Z,74.97
2017-11-08T16:25:10.026Z,83.37
2017-11-08T16:27:36.075Z,83.10
2017-11-08T16:30:02.014Z,73.70
2017-11-08T16:32:28.002Z,86.07
2017-11-08T16:34:53.991Z,84.60
2017-11-08T16:37:19.965Z,90.57
2017-11-08T16:39:45.992Z,84.27
2017-11-08T16:42:12.695Z,79.53
2017-11-08T16:44:38.692Z,81.60
2017-11-08T16:47:04.637Z,77.33
2017-11-08T16:49:30.611Z,86.73
2017-11-08T16:51:56.602Z,85.97
2017-11-08T16:54:22.583Z,89.70
2017-11-08T16:56:48.546Z,96.70
2017-11-08T16:59:15.020Z,90.97
2017-11-08T17:01:40.995Z,88.77
2017-11-08T17:04:06.990Z,93.50
2017-11-08T17:06:32.967Z,90.10
2017-11-08T17:08:58.959Z,93.57
2017-11-08T17:11:24.963Z,87.57
2017-11-08T17:13:50.942Z,92.00
2017-11-08T17:16:16.939Z,94.93
2017-11-08T17:18:42.894Z,90.37
2017-11-08T17:21:09.581Z,93.40
2017-11-08T17:23:35.550Z,95.13
2017-11-08T17:26:02.996Z,88.03
2017-11-08T17:28:28.995Z,97.50
2017-11-08T17:30:54.942Z,100.57
2017-11-08T17:33:20.926Z,93.67
2017-11-08T17:35:46.913Z,95.40
2017-11-08T17:38:12.861Z,108.03
2017-11-08T17:40:38.859Z,104.07
2017-11-08T17:43:05.546Z,103.67
2017-11-08T17:45:31.539Z,116.33
2017-11-08T17:47:57.489Z,103.83
2017-11-08T17:50:23.458Z,106.97
2017-11-08T17:52:49.435Z,97.93
2017-11-08T17:55:15.391Z,100.33
2017-11-08T17:57:42.120Z,113.17
2017-11-08T18:00:08.088Z,114.70
2017-11-08T18:02:34.854Z,108.27
2017-11-08T18:05:00.820Z,112.67
2017-11-08T18:07:26.826Z,120.13
2017-11-08T18:09:52.785Z,107.37
2017-11-08T18:12:18.787Z,102.53
2017-11-08T18:14:45.497Z,112.60
2017-11-08T18:17:11.479Z,115.67
2017-11-08T18:19:37.500Z,103.17
2017-11-08T18:22:04.208Z,116.07
2017-11-08T18:24:30.232Z,107.23
2017-11-08T18:26:56.183Z,112.20
2017-11-08T18:29:22.142Z,103.57
2017-11-08T18:31:48.126Z,109.97
2017-11-08T18:34:14.098Z,113.17
2017-11-08T18:36:40.082Z,114.70
2017-11-08T18:39:06.029Z,127.00
2017-11-08T18:41:32.006Z,125.00
2017-11-08T18:43:57.954Z,113.37
2017-11-08T18:46:23.946Z,110.57
2017-11-08T18:48:49.907Z,112.60
2017-11-08T18:51:15.891Z,104.27
2017-11-08T18:53:42.610Z,109.63
2017-11-08T18:56:08.553Z,113.17
2017-11-08T18:58:35.345Z,112.83
2017-11-08T19:01:01.327Z,112.83
2017-11-08T19:03:27.324Z,105.57
2017-11-08T19:05:53.270Z,110.73
2017-11-08T19:08:19.291Z,115.53
2017-11-08T19:10:45.292Z,113.90
2017-11-08T19:13:11.246Z,111.97
2017-11-08T19:15:37.974Z,128.10
2017-11-08T19:18:03.971Z,114.33
2017-11-08T19:20:29.923Z,114.50
2017-11-08T19:22:55.937Z,112.73
2017-11-08T19:25:21.944Z,117.13
2017-11-08T19:27:48.661Z,116.53
2017-11-08T19:30:14.695Z,114.50
2017-11-08T19:32:40.649Z,117.63
2017-11-08T19:35:06.611Z,113.80
2017-11-08T19:37:33.334Z,110.30
2017-11-08T19:39:59.386Z,111.20
2017-11-08T19:42:26.129Z,108.80
2017-11-08T19:44:53.602Z,128.57
2017-11-08T19:47:19.603Z,116.17
2017-11-08T19:49:45.645Z,107.40
2017-11-08T19:52:11.648Z,119.70
2017-11-08T19:54:37.623Z,108.53
2017-11-08T19:57:18.583Z,93.77
2017-11-08T19:59:44.568Z,117.90
2017-11-08T20:02:10.558Z,112.63
2017-11-08T20:04:36.551Z,113.97
2017-11-08T20:07:03.246Z,98.27
2017-11-08T20:09:29.246Z,98.73
2017-11-08T20:11:55.948Z,110.13
2017-11-08T20:14:21.959Z,108.00
2017-11-08T20:16:47.963Z,107.17
2017-11-08T20:19:14.712Z,109.90
2017-11-08T20:21:40.703Z,101.40
2017-11-08T20:24:06.654Z,106.97
2017-11-08T20:26:32.659Z,108.20
2017-11-08T20:28:58.615Z,107.77
2017-11-08T20:31:24.589Z,115.03
2017-11-08T20:33:50.594Z,107.77
2017-11-08T20:36:16.541Z,106.80
2017-11-08T20:38:42.569Z,100.83
2017-11-08T20:41:08.515Z,105.03
2017-11-08T20:43:34.465Z,98.47
2017-11-08T20:46:00.450Z,104.10
2017-11-08T20:48:26.433Z,91.53
2017-11-08T20:50:52.430Z,107.23
2017-11-08T20:53:18.395Z,100.03
2017-11-08T20:55:44.375Z,109.23
2017-11-08T20:58:11.115Z,104.93
2017-11-08T21:00:37.814Z,110.17
2017-11-08T21:03:03.802Z,98.47
2017-11-08T21:05:30.558Z,111.13
2017-11-08T21:07:57.378Z,111.07
2017-11-08T21:10:23.330Z,102.30
2017-11-08T21:12:49.371Z,116.40
2017-11-08T21:15:15.332Z,109.10
2017-11-08T21:17:42.026Z,120.40
2017-11-08T21:20:08.024Z,119.37
2017-11-08T21:22:34.032Z,120.83
2017-11-08T21:25:00.768Z,114.23
2017-11-08T21:27:26.713Z,117.93
2017-11-08T21:29:52.690Z,115.27
2017-11-08T21:32:19.451Z,123.63
2017-11-08T21:34:45.426Z,122.10
2017-11-08T21:37:11.415Z,131.10
2017-11-08T21:39:37.390Z,107.17
2017-11-08T21:42:03.394Z,122.97
2017-11-08T21:44:29.376Z,119.37
2017-11-08T21:46:55.330Z,121.47
2017-11-08T21:49:22.073Z,133.20
2017-11-08T21:51:48.030Z,112.67
2017-11-08T21:54:14.730Z,115.47
2017-11-08T21:56:40.715Z,116.47
2017-11-08T21:59:07.401Z,122.83
2017-11-08T22:01:33.370Z,130.27
2017-11-08T22:03:59.318Z,125.33
2017-11-08T22:06:25.299Z,133.97
2017-11-08T22:08:51.299Z,117.77
2017-11-08T22:11:17.274Z,120.87
2017-11-08T22:13:43.223Z,116.57
2017-11-08T22:16:09.214Z,127.80
2017-11-08T22:18:35.182Z,113.87
2017-11-08T22:21:01.176Z,117.93
2017-11-08T22:23:27.182Z,127.10
2017-11-08T22:25:53.133Z,118.00
2017-11-08T22:28:19.109Z,116.27
2017-11-08T22:30:45.854Z,122.00
2017-11-08T22:33:12.559Z,115.87
2017-11-08T22:35:38.512Z,123.40
2017-11-08T22:38:04.496Z,114.47
2017-11-08T22:40:30.457Z,115.87
2017-11-08T22:42:56.445Z,124.33
2017-11-08T22:45:23.135Z,133.93
2017-11-08T22:47:49.181Z,115.63
2017-11-08T22:50:15.145Z,136.60
2017-11-08T22:52:41.099Z,122.07
2017-11-08T22:55:07.082Z,154.97
2017-11-08T22:57:33.040Z,155.17
2017-11-08T22:59:59.017Z,150.17
2017-11-08T23:02:25.758Z,136.57
2017-11-08T23:04:51.717Z,168.10
2017-11-08T23:07:18.422Z,124.10
2017-11-08T23:09:44.432Z,122.63
2017-11-08T23:12:10.416Z,103.93
2017-11-08T23:14:36.426Z,112.43
2017-11-08T23:17:02.387Z,128.23
2017-11-08T23:19:29.831Z,116.40
2017-11-08T23:21:55.849Z,113.17
2017-11-08T23:24:21.819Z,123.20
2017-11-08T23:26:47.781Z,121.93
2017-11-08T23:29:14.633Z,105.70
2017-11-08T23:31:41.337Z,125.07
2017-11-08T23:34:07.286Z,119.37
2017-11-08T23:36:33.301Z,124.03
2017-11-08T23:38:59.254Z,115.47
2017-11-08T23:41:25.210Z,123.63
2017-11-08T23:43:51.206Z,117.33
2017-11-08T23:46:17.178Z,124.70
2017-11-08T23:48:43.128Z,117.80
2017-11-08T23:51:09.119Z,121.20
2017-11-08T23:53:36.027Z,128.00
2017-11-08T23:56:02.057Z,116.20
2017-11-08T23:58:28.011Z,128.70
